Tiempo atmosférico en la estación meteorológica de Pollença Aeródromo, Illes Balears (2 m.)



Fecha
DESCASC
Temp. máxima en grados centígrados (hora)
DESCASC
Temp. mínima en grados centígrados (hora)
DESCASC
Temp. media en grados centígrados
DESCASC
Racha de viento máxima en m/sg (hora)
DESCASC
Velocidad máxima media en intervalos de 10 minutos(hora)
DESCASC
Precipitaciones diarias en mm
DESCASC
Precipitaciones de 00:00 a 06:00 en mm
DESCASC
Precipitaciones de 06:00 a 12:00 en mm
DESCASC
Precipitaciones de 12:00 a 18:00 en mm
DESCASC
Precipitaciones de 18:00 a 24:00 en mm
DESCASC

Gráficas

Temp. máximas Temp. mínimas Temp. medias Precipitaciones Rachas de viento máximas Velocidades máximas media en intervalos de 10 minutos

Datos horarios

Fecha y hora oficial Temperatura (ºC) Velocidad del viento (km/h) Dirección del viento Racha (km/h) Dirección de racha Precipitación (mm) Presión (hPa) Tendencia (hPa) Humedad (%)
2019-11-12 23:00:00 15.5 8 Noroeste 28 Oeste 0 -- -- 59
2019-11-12 22:00:00 15.8 8 Noroeste 30 Norte 0 -- -- 59
2019-11-12 21:00:00 15.5 6 Noroeste 32 Oeste 0 -- -- 61
2019-11-12 20:00:00 15.1 8 Noroeste 30 Norte 0 -- -- 60
2019-11-12 19:00:00 14.7 7 Noroeste 31 Oeste 0 -- -- 65
2019-11-12 18:00:00 14.3 5 Noroeste 25 Oeste 0 -- -- 66
2019-11-12 17:00:00 15.6 7 Noroeste 25 Oeste 0 -- -- 61
2019-11-12 16:00:00 16.5 9 Noroeste 33 Oeste 0 -- -- 57
2019-11-12 15:00:00 17.1 7 Noroeste 28 Oeste 0 -- -- 60
2019-11-12 14:00:00 17.2 7 Noroeste 32 Oeste 0 -- -- 55
2019-11-12 13:00:00 17.1 8 Oeste 36 Oeste 0 -- -- 61
2019-11-12 12:00:00 17.1 6 Oeste 21 Sudoeste 0 -- -- 61
2019-11-12 11:00:00 17.1 5 Norte 19 Norte 0 -- -- 58
2019-11-12 10:00:00 16 6 Norte 18 Norte 0 -- -- 59
2019-11-12 09:00:00 15.2 6 Norte 24 Norte 0 -- -- 60
2019-11-12 08:00:00 14 10 Norte 33 Noroeste 0 -- -- 65
2019-11-12 07:00:00 13.8 14 Norte 40 Norte 0 -- -- 65
2019-11-12 06:00:00 13.8 12 Norte 31 Norte 0 -- -- 68
2019-11-12 05:00:00 12.8 10 Nordeste 21 Nordeste 0 -- -- 75
2019-11-12 04:00:00 11.7 4 Norte 14 Norte 0 -- -- 75
2019-11-12 03:00:00 11.6 2 Norte 13 Norte 0 -- -- 76
2019-11-12 02:00:00 12.4 4 Norte 14 Nordeste 0 -- -- 71
2019-11-12 01:00:00 12.8 4 Nordeste 17 Nordeste 0 -- -- 71
2019-11-12 00:00:00 13.6 8 Nordeste 20 Nordeste 0 -- -- 65
2019-11-11 23:00:00 14.1 6 Norte 23 Norte 0 -- -- 55
2019-11-11 22:00:00 14.4 9 Norte 27 Norte 0 -- -- 60
2019-11-11 21:00:00 15.1 15 Norte 35 Norte 0 -- -- 63
2019-11-11 20:00:00 15.2 15 Norte 41 Norte 0 -- -- 66
2019-11-11 19:00:00 15.1 10 Norte 40 Norte 0 -- -- 61
2019-11-11 18:00:00 14.6 13 Norte 40 Noroeste 0 -- -- 67
2019-11-11 17:00:00 14.2 11 Norte 40 Noroeste 0.2 -- -- 73
2019-11-11 16:00:00 14.2 11 Norte 35 Norte 0 -- -- 72
2019-11-11 15:00:00 13.9 14 Norte 45 Norte 0 -- -- 74
2019-11-11 14:00:00 14.4 20 Norte 49 Noroeste 0 -- -- 69
2019-11-11 13:00:00 14.1 14 Norte 49 Norte 0 -- -- 70
2019-11-11 12:00:00 14.5 18 Norte 52 Norte 0 -- -- 66
2019-11-11 11:00:00 14.6 15 Norte 58 Norte 0 -- -- 60
2019-11-11 10:00:00 13.5 19 Norte 55 Norte 0.2 -- -- 63
2019-11-11 09:00:00 11.9 21 Norte 55 Norte 1.2 -- -- 78
2019-11-11 08:00:00 11.4 24 Norte 57 Norte 1.4 -- -- 79
2019-11-11 07:00:00 13.1 22 Norte 65 Norte 0 -- -- 59
2019-11-11 06:00:00 14 21 Norte 60 Norte 0 -- -- 56
2019-11-11 05:00:00 13.8 11 Nordeste 58 Norte 0 -- -- 70
2019-11-11 04:00:00 13.7 19 Norte 58 Norte 0 -- -- 51
2019-11-11 03:00:00 13.8 21 Norte 49 Norte 0 -- -- 65
2019-11-11 02:00:00 13.8 17 Norte 52 Norte 0 -- -- 52
2019-11-11 01:00:00 13.9 24 Norte 58 Norte 0 -- -- 60
2019-11-11 00:00:00 14 17 Norte 56 Norte 0 -- -- 53
2019-11-10 23:00:00 14.3 23 Norte 53 Norte 0.2 -- -- 48
2019-11-10 22:00:00 14 12 Norte 45 Norte 0 -- -- 59
2019-11-10 21:00:00 13.9 12 Norte 39 Norte 0 -- -- 59
2019-11-10 20:00:00 13.7 10 Norte 38 Norte 0 -- -- 57
2019-11-10 19:00:00 13.7 16 Norte 38 Noroeste 0 -- -- 58
2019-11-10 18:00:00 13.7 13 Norte 51 Norte 0 -- -- 59
2019-11-10 17:00:00 13.7 16 Norte 51 Nordeste 0 -- -- 58
2019-11-10 16:00:00 13.2 7 Este 42 Norte 0 -- -- 68
2019-11-10 15:00:00 13.7 14 Oeste 37 Oeste 0 -- -- 67
2019-11-10 14:00:00 13.1 15 Norte 46 Noroeste 0 -- -- 63
2019-11-10 13:00:00 12.5 18 Nordeste 42 Norte 0.2 -- -- 69
2019-11-10 12:00:00 9.5 13 Norte 60 Norte 4.2 -- -- 95
2019-11-10 11:00:00 9.5 27 Norte 73 Norte 2.8 -- -- 95
2019-11-10 10:00:00 9.2 19 Norte 61 Nordeste 5.6 -- -- 100
2019-11-10 09:00:00 9.7 25 Norte 49 Nordeste 1.8 -- -- 100
2019-11-10 08:00:00 10 15 Nordeste 45 Nordeste 1.6 -- -- 100
2019-11-10 07:00:00 10.7 11 Norte 41 Oeste 18 -- -- 100
2019-11-10 06:00:00 9.3 12 Noroeste 32 Norte 15.8 -- -- 98
2019-11-10 05:00:00 16.2 17 Norte 46 Norte 0 -- -- 66
2019-11-10 04:00:00 16.6 5 Noroeste 39 Oeste 0 -- -- 57
2019-11-10 03:00:00 17 9 Noroeste 40 Oeste 0 -- -- 56
2019-11-10 02:00:00 13.5 4 Noroeste 15 Oeste 0 -- -- 79
2019-11-10 01:00:00 12.8 0 Calma 5 Norte 0 -- -- 82
2019-11-10 00:00:00 12.8 2 Nordeste 4 Norte 0 -- -- 81
2019-11-09 23:00:00 12.9 0 Calma 4 Norte 0 -- -- 78
2019-11-09 22:00:00 13.3 0 Calma 5 Sudeste 0 -- -- 74
2019-11-09 21:00:00 14.3 7 Sudoeste 21 Sudoeste 0 -- -- 72
2019-11-09 20:00:00 14.9 0 Calma 21 Sudoeste 0 -- -- 66
2019-11-09 19:00:00 15.4 4 Noroeste 19 Oeste 0 -- -- 61
2019-11-09 18:00:00 15.3 6 Noroeste 27 Oeste 0 -- -- 60
2019-11-09 17:00:00 15.1 5 Noroeste 32 Oeste 0 -- -- 63
2019-11-09 16:00:00 17.2 7 Noroeste 24 Oeste 0 -- -- 57
2019-11-09 15:00:00 18.2 6 Oeste 21 Sudoeste 0 -- -- 54
2019-11-09 14:00:00 18.6 4 Oeste 22 Oeste 0 -- -- 55
2019-11-09 13:00:00 18 5 Noroeste 21 Oeste 0 -- -- 55
2019-11-09 12:00:00 16.4 5 Noroeste 27 Sudoeste 0 -- -- 63
2019-11-09 11:00:00 16.4 8 Oeste 30 Sudoeste 0 -- -- 63
2019-11-09 10:00:00 14.9 8 Oeste 32 Oeste 0 -- -- 66
2019-11-09 09:00:00 14.9 7 Oeste 26 Sudoeste 0 -- -- 68
2019-11-09 08:00:00 14.3 9 Sur 36 Oeste 0 -- -- 70
2019-11-09 07:00:00 14.3 10 Oeste 48 Noroeste 0 -- -- 69
2019-11-09 06:00:00 14 6 Noroeste 27 Norte 0 -- -- 71
2019-11-09 05:00:00 14.1 8 Noroeste 28 Oeste 0 -- -- 69
2019-11-09 04:00:00 13.9 9 Noroeste 29 Oeste 0 -- -- 69
2019-11-09 03:00:00 13.8 9 Noroeste 41 Sudoeste 0 -- -- 68
2019-11-09 02:00:00 13.7 9 Noroeste 34 Oeste 0 -- -- 70
2019-11-09 01:00:00 13.8 11 Noroeste 40 Oeste 0 -- -- 67
2019-11-09 00:00:00 13.9 14 Oeste 58 Oeste 0 -- -- 68
2019-11-08 23:00:00 13.8 11 Noroeste 53 Norte 0 -- -- 69
2019-11-08 22:00:00 14.1 12 Noroeste 46 Sudoeste 0 -- -- 62
2019-11-08 21:00:00 14.8 10 Noroeste 37 Norte 0 -- -- 61
2019-11-08 20:00:00 15.2 7 Noroeste 31 Oeste 0 -- -- 52
2019-11-08 19:00:00 15.7 6 Oeste 29 Oeste 0 -- -- 57
2019-11-08 18:00:00 15.4 5 Oeste 35 Noroeste 0 -- -- 54
2019-11-08 17:00:00 15.3 8 Noroeste 32 Oeste 0 -- -- 51
2019-11-08 16:00:00 15.7 5 Noroeste 31 Oeste 0 -- -- 54
2019-11-08 15:00:00 16.1 6 Oeste 28 Oeste 0 -- -- 55
2019-11-08 14:00:00 16.3 7 Noroeste 34 Oeste 0 -- -- 52
2019-11-08 13:00:00 15.2 9 Noroeste 28 Oeste 0 -- -- 51
2019-11-08 12:00:00 16.2 7 Noroeste 25 Oeste 0 -- -- 51
2019-11-08 11:00:00 15.1 6 Noroeste 40 Oeste 0 -- -- 54
2019-11-08 10:00:00 14.4 11 Oeste 40 Oeste 0.2 -- -- 57
2019-11-08 09:00:00 13.9 8 Noroeste 27 Oeste 0 -- -- 59
2019-11-08 08:00:00 13.8 7 Noroeste 31 Oeste 0 -- -- 60
2019-11-08 07:00:00 14 9 Noroeste 39 Sudoeste 0 -- -- 64
2019-11-08 06:00:00 13.6 6 Noroeste 25 Oeste 0 -- -- 65
2019-11-08 05:00:00 13.9 5 Noroeste 30 Sudoeste 0 -- -- 54
2019-11-08 04:00:00 14.3 3 Noroeste 20 Sudoeste 0 -- -- 64
2019-11-08 03:00:00 11.6 3 Norte 13 Nordeste 0 -- -- 79
2019-11-08 02:00:00 12.5 6 Noroeste 22 Oeste 0.2 -- -- 66
2019-11-08 01:00:00 14.7 12 Noroeste 50 Oeste 0 -- -- 57
2019-11-08 00:00:00 14.2 8 Norte 37 Este 0.2 -- -- 59
2019-11-07 23:00:00 13.7 6 Noroeste 42 Norte 0.6 -- -- 66
2019-11-07 22:00:00 15.9 16 Norte 64 Nordeste 0 -- -- 59
2019-11-07 21:00:00 15.5 12 Norte 38 Nordeste 0 -- -- 84
2019-11-07 20:00:00 13.8 3 Nordeste 17 Oeste 13.2 -- -- 100
2019-11-07 19:00:00 14.9 2 Norte 5 Norte 1.2 -- -- 100
2019-11-07 18:00:00 15.7 2 Norte 15 Sudoeste 0.2 -- -- 95
2019-11-07 17:00:00 17.8 6 Sudoeste 15 Sudoeste 0.4 -- -- 77
2019-11-07 16:00:00 19.9 4 Noroeste 13 Oeste 0 -- -- 61
2019-11-07 15:00:00 22.7 5 Noroeste 19 Oeste 0 -- -- 53
2019-11-07 14:00:00 21.3 5 Noroeste 19 Oeste 0 -- -- 56
2019-11-07 13:00:00 21.6 3 Sur 13 Norte 0 -- -- 50
2019-11-07 12:00:00 19 2 Norte 16 Sur 0 -- -- 66
2019-11-07 11:00:00 20.8 9 Sur 14 Sudoeste 0 -- -- 60
2019-11-07 10:00:00 18.6 2 Este 5 Sur 0 -- -- 68
2019-11-07 09:00:00 13.3 0 Calma 7 Este 0 -- -- 92
2019-11-07 08:00:00 9.5 3 Norte 6 Norte 0 -- -- 99
2019-11-07 07:00:00 9 2 Norte 4 Norte 0 -- -- 98
2019-11-07 06:00:00 9 2 Nordeste 4 Este 0 -- -- 98
2019-11-07 05:00:00 9 3 Nordeste 5 Nordeste 0 -- -- 97
2019-11-07 04:00:00 9.1 3 Norte 5 Norte 0 -- -- 95
2019-11-07 03:00:00 9.5 0 Calma 5 Sur 0 -- -- 95
2019-11-07 02:00:00 9.8 3 Norte 4 Sur 0 -- -- 92
2019-11-07 01:00:00 10.4 0 Calma 7 Norte 0 -- -- 90
2019-11-07 00:00:00 11 3 Norte 5 Norte 0 -- -- 86
2019-11-06 23:00:00 12.8 2 Nordeste 8 Sudoeste 0 -- -- 82
2019-11-06 22:00:00 13.7 5 Noroeste 17 Sudeste 0 -- -- 78
2019-11-06 21:00:00 12.3 4 Sudeste 9 Sudeste 0 -- -- 85
2019-11-06 20:00:00 12.8 0 Calma 4 Norte 0 -- -- 81
2019-11-06 19:00:00 14.8 0 Calma 10 Sur 0 -- -- 73
2019-11-06 18:00:00 16.1 0 Calma 14 Sudoeste 0 -- -- 69
2019-11-06 17:00:00 17.5 4 Oeste 19 Oeste 0 -- -- 64
2019-11-06 16:00:00 19.1 5 Noroeste 19 Oeste 0 -- -- 57
2019-11-06 15:00:00 18.4 7 Oeste 31 Oeste 0 -- -- 61
2019-11-06 14:00:00 18 8 Oeste 40 Oeste 0 -- -- 61
2019-11-06 13:00:00 18 13 Oeste 45 Oeste 0 -- -- 61
2019-11-06 12:00:00 17.6 10 Noroeste 40 Oeste 0 -- -- 64
2019-11-06 11:00:00 17.9 12 Noroeste 46 Sudoeste 0 -- -- 61
2019-11-06 10:00:00 17.2 11 Oeste 42 Oeste 0 -- -- 61
2019-11-06 09:00:00 16.3 6 Noroeste 24 Norte 0 -- -- 64
2019-11-06 08:00:00 16.1 11 Noroeste 41 Norte 0 -- -- 62
2019-11-06 07:00:00 15.9 6 Noroeste 33 Oeste 0 -- -- 63
2019-11-06 06:00:00 16.1 11 Noroeste 36 Oeste 0 -- -- 58
2019-11-06 05:00:00 16.3 5 Noroeste 33 Noroeste 0 -- -- 61
2019-11-06 04:00:00 16.3 13 Noroeste 42 Oeste 0 -- -- 59
2019-11-06 03:00:00 16.4 10 Noroeste 37 Oeste 0 -- -- 59
2019-11-06 02:00:00 16.6 12 Noroeste 44 Oeste 0 -- -- 54
2019-11-06 01:00:00 17.1 7 Noroeste 35 Noroeste 0 -- -- 56
2019-11-06 00:00:00 17.3 7 Noroeste 43 Sudoeste 0 -- -- 60
2019-11-05 23:00:00 16.9 8 Oeste 27 Noroeste 0 -- -- 66
2019-11-05 22:00:00 14.4 2 Noroeste 16 Sudoeste 0 -- -- 69
2019-11-05 21:00:00 16.1 9 Sudoeste 17 Sur 0 -- -- 67
2019-11-05 20:00:00 16.6 10 Sur 19 Sudoeste 0 -- -- 62
2019-11-05 19:00:00 17.1 4 Oeste 18 Sudoeste 0 -- -- 59
2019-11-05 18:00:00 17.3 5 Sudoeste 20 Sudoeste 0 -- -- 59
2019-11-05 17:00:00 18.1 5 Sudoeste 24 Oeste 0 -- -- 54
2019-11-05 16:00:00 18.6 5 Noroeste 23 Oeste 0 -- -- 54
2019-11-05 15:00:00 19.3 6 Noroeste 23 Oeste 0 -- -- 53
2019-11-05 14:00:00 18.6 3 Noroeste 25 Nordeste 0 -- -- 58
2019-11-05 13:00:00 19.5 9 Noroeste 31 Norte 0.2 -- -- 52
2019-11-05 12:00:00 19.6 6 Noroeste 32 Oeste 0 -- -- 54
2019-11-05 11:00:00 18.6 9 Noroeste 42 Oeste 0 -- -- 55
2019-11-05 10:00:00 18.1 8 Noroeste 23 Sudoeste 1 -- -- 75
2019-11-05 09:00:00 16.3 8 Noroeste 29 Noroeste 0.2 -- -- 78
2019-11-05 08:00:00 14.3 0 Calma 10 Sur 0 -- -- 96
2019-11-05 07:00:00 15.4 2 Oeste 21 Oeste 0 -- -- 87
2019-11-05 06:00:00 16.1 7 Noroeste 37 Norte 1.4 -- -- 87
2019-11-05 05:00:00 20.7 10 Oeste 34 Oeste 0 -- -- 62
2019-11-05 04:00:00 20.9 8 Oeste 31 Oeste 0 -- -- 58
2019-11-05 03:00:00 20.8 11 Oeste 36 Oeste 0 -- -- 55
2019-11-05 02:00:00 20.7 9 Oeste 35 Sudoeste 0 -- -- 57
2019-11-05 01:00:00 20.8 10 Oeste 32 Sudoeste 0 -- -- 55
2019-11-05 00:00:00 21 6 Sudoeste 27 Sudoeste 0 -- -- 56
2019-11-04 23:00:00 21.3 8 Sudoeste 37 Sudoeste 0 -- -- 52
2019-11-04 22:00:00 20.7 4 Oeste 27 Oeste 0 -- -- 56
2019-11-04 21:00:00 20.5 8 Sudoeste 23 Sudoeste 0 -- -- 67
2019-11-04 20:00:00 21 13 Sudoeste 32 Sudoeste 0 -- -- 60
2019-11-04 19:00:00 21.5 11 Sudoeste 28 Sudoeste 0 -- -- 59
2019-11-04 18:00:00 21.2 8 Sur 34 Sudoeste 0 -- -- 64
2019-11-04 17:00:00 22.6 13 Sudoeste 43 Sudoeste 0 -- -- 55
2019-11-04 16:00:00 23.1 9 Sudoeste 33 Oeste 0 -- -- 55
2019-11-04 15:00:00 23.7 11 Oeste 35 Oeste 0 -- -- 53
2019-11-04 14:00:00 23.8 9 Oeste 29 Sudoeste 0 -- -- 54
2019-11-04 13:00:00 23.9 8 Oeste 39 Oeste 0 -- -- 57
2019-11-04 12:00:00 23.1 8 Oeste 40 Sudoeste 0 -- -- 59
2019-11-04 11:00:00 22.3 10 Sudoeste 37 Sur 0 -- -- 64
2019-11-04 10:00:00 21.4 5 Sudoeste 12 Oeste 0 -- -- 66
2019-11-04 09:00:00 16.2 5 Norte 10 Sudeste 0 -- -- 84
2019-11-04 08:00:00 14.4 4 Sudeste 12 Sudeste 0 -- -- 90
2019-11-04 07:00:00 13.3 3 Norte 10 Norte 0 -- -- 84
2019-11-04 06:00:00 12.7 3 Norte 7 Noroeste 0 -- -- 82
2019-11-04 05:00:00 12.7 2 Norte 8 Nordeste 0 -- -- 82
2019-11-04 04:00:00 13.8 3 Noroeste 14 Sudoeste 0 -- -- 76
2019-11-04 03:00:00 13.8 3 Norte 11 Norte 0 -- -- 76
2019-11-04 02:00:00 14.3 3 Norte 10 Sudoeste 0 -- -- 75
2019-11-04 01:00:00 16.2 2 Norte 15 Sudoeste 0 -- -- 63
2019-11-04 00:00:00 18.9 5 Noroeste 24 Norte 0 -- -- 49
2019-11-03 23:00:00 19.2 8 Noroeste 36 Sudoeste 0 -- -- 50
2019-11-03 22:00:00 19.4 6 Noroeste 39 Oeste 0 -- -- 52
2019-11-03 21:00:00 19.8 16 Oeste 50 Oeste 0 -- -- 49
2019-11-03 20:00:00 19.6 9 Noroeste 33 Oeste 0 -- -- 48
2019-11-03 19:00:00 19.7 13 Noroeste 46 Oeste 0 -- -- 50
2019-11-03 18:00:00 19.6 19 Noroeste 60 Sudoeste 0.2 -- -- 47
2019-11-03 17:00:00 19.8 15 Noroeste 39 Oeste 0 -- -- 49
2019-11-03 16:00:00 20.3 12 Noroeste 51 Oeste 0 -- -- 50
2019-11-03 15:00:00 20.3 14 Noroeste 49 Oeste 0 -- -- 50
2019-11-03 14:00:00 17.4 8 Noroeste 39 Oeste 0 -- -- 69
2019-11-03 13:00:00 15.5 8 Noroeste 53 Sudoeste 2.2 -- -- 85
2019-11-03 12:00:00 23 12 Oeste 47 Sudoeste 0 -- -- 59
2019-11-03 11:00:00 23.9 10 Oeste 34 Oeste 0 -- -- 52
2019-11-03 10:00:00 23 12 Oeste 39 Oeste 0 -- -- 55
2019-11-03 09:00:00 21.7 9 Oeste 37 Noroeste 0 -- -- 60
2019-11-03 08:00:00 21.2 10 Oeste 39 Oeste 0 -- -- 60
2019-11-03 07:00:00 21.5 12 Sudoeste 42 Sudoeste 0 -- -- 60
2019-11-03 06:00:00 22.4 7 Oeste 44 Oeste 0 -- -- 60
2019-11-03 05:00:00 22.8 15 Oeste 46 Oeste 0 -- -- 57
2019-11-03 04:00:00 21.1 21 Sur 31 Sur 0 -- -- 74
2019-11-03 03:00:00 21 11 Sudoeste 23 Sudoeste 0 -- -- 77
2019-11-03 02:00:00 19.4 0 Calma 25 Sudoeste 0 -- -- 81
2019-11-03 01:00:00 19.3 3 Noroeste 17 Sudoeste 0 -- -- 87
2019-11-03 00:00:00 20.4 14 Sur 22 Sur 0 -- -- 86
2019-11-02 23:00:00 17.1 2 Norte 5 Norte 0 -- -- 95
2019-11-02 22:00:00 17.1 2 Norte 6 Sur 0 -- -- 94
2019-11-02 21:00:00 17.5 0 Calma 14 Sur 0 -- -- 90
2019-11-02 20:00:00 19.1 2 Norte 13 Sur 0 -- -- 83
2019-11-02 19:00:00 21.1 6 Sudoeste 20 Sudoeste 0 -- -- 76
2019-11-02 18:00:00 22.1 15 Sudoeste 26 Sur 0 -- -- 78
2019-11-02 17:00:00 24.3 15 Sudoeste 25 Sudoeste 0 -- -- 67
2019-11-02 16:00:00 27.1 11 Sur 18 Sur 0 -- -- 61
2019-11-02 15:00:00 27 4 Sudoeste 15 Norte 0 -- -- 51
2019-11-02 14:00:00 27 4 Noroeste 21 Oeste 0 -- -- 47
2019-11-02 13:00:00 26 6 Noroeste 27 Noroeste 0 -- -- 50
2019-11-02 12:00:00 24.9 4 Noroeste 20 Oeste 0 -- -- 55
2019-11-02 11:00:00 24 5 Oeste 17 Sudoeste 0 -- -- 64
2019-11-02 10:00:00 22.7 6 Sudoeste 13 Sudoeste 0 -- -- 70
2019-11-02 09:00:00 19.8 3 Oeste 15 Sur 0 -- -- 98
2019-11-02 08:00:00 17.2 0 Calma 6 Norte 0 -- -- 100
2019-11-02 07:00:00 16.7 3 Nordeste 6 Norte 0 -- -- 100
2019-11-02 06:00:00 17.3 3 Norte 6 Norte 0 -- -- 100
2019-11-02 05:00:00 18.3 2 Nordeste 6 Norte 0 -- -- 100
2019-11-02 04:00:00 19.1 0 Calma 7 Nordeste 0 -- -- 100
2019-11-02 03:00:00 18.8 3 Norte 7 Nordeste 0 -- -- 99
2019-11-02 02:00:00 18.5 3 Este 8 Nordeste 0 -- -- 97
2019-11-02 01:00:00 18.1 3 Norte 8 Nordeste 0 -- -- 99
2019-11-02 00:00:00 17.6 2 Norte 6 Oeste 0 -- -- 100
2019-11-01 23:00:00 17.8 3 Nordeste 10 Sudeste 0 -- -- 99
2019-11-01 22:00:00 18.8 5 Sudeste 10 Sudeste 0 -- -- 100
2019-11-01 21:00:00 18.5 0 Calma 5 Sur 0 -- -- 95
2019-11-01 20:00:00 19.2 0 Calma 7 Nordeste 0 -- -- 90
2019-11-01 19:00:00 20.5 3 Sur 9 Sudeste 0 -- -- 85
2019-11-01 18:00:00 21.3 0 Calma 12 Este 0 -- -- 80
2019-11-01 17:00:00 22.4 4 Este 12 Este 0 -- -- 75
2019-11-01 16:00:00 23 4 Este 12 Este 0 -- -- 71
2019-11-01 15:00:00 24.6 3 Noroeste 13 Oeste 0 -- -- 54
2019-11-01 14:00:00 26.9 4 Noroeste 12 Sur 0 -- -- 49
2019-11-01 13:00:00 27.1 5 Sudeste 13 Sudeste 0 -- -- 54
2019-11-01 12:00:00 25 2 Sur 12 Sur 0 -- -- 63
2019-11-01 11:00:00 22.4 11 Sudoeste 15 Sur 0 -- -- 77
2019-11-01 10:00:00 22.1 3 Sudeste 9 Sur 0 -- -- 79
2019-11-01 09:00:00 18.3 0 Calma 5 Este 0 -- -- 100
2019-11-01 08:00:00 14.9 3 Norte 9 Este 0 -- -- 100
2019-11-01 07:00:00 14.4 0 Calma 4 Norte 0 -- -- 100
2019-11-01 06:00:00 14.6 0 Calma 6 Este 0 -- -- 100
2019-11-01 05:00:00 15.9 0 Calma 11 Sur 0 -- -- 99
2019-11-01 04:00:00 17.3 5 Sur 10 Sudoeste 0 -- -- 100
2019-11-01 03:00:00 16.3 4 Nordeste 6 Nordeste 0 -- -- 100
2019-11-01 02:00:00 16.2 2 Norte 4 Norte 0 -- -- 100
2019-11-01 01:00:00 16.6 0 Calma 3 Norte 0 -- -- 100
2019-11-01 00:00:00 16.5 0 Calma 5 Norte 0 -- -- 98
2019-10-31 23:00:00 17.1 2 Norte 5 Norte 0 -- -- 94
2019-10-31 22:00:00 18.3 3 Norte 4 Nordeste 0 -- -- 92
2019-10-31 21:00:00 19.1 0 Calma 10 Nordeste 0 -- -- 89
2019-10-31 20:00:00 19.2 4 Norte 9 Norte 0 -- -- 91
2019-10-31 19:00:00 19.1 0 Calma 17 Nordeste 0 -- -- 86
2019-10-31 18:00:00 20.2 9 Norte 28 Norte 0 -- -- 85
2019-10-31 17:00:00 21.2 11 Norte 27 Norte 0 -- -- 77
2019-10-31 16:00:00 21.8 4 Noroeste 17 Este 0 -- -- 77
2019-10-31 15:00:00 22.6 7 Sudoeste 24 Noroeste 0 -- -- 72
2019-10-31 14:00:00 24.3 6 Oeste 24 Oeste 0 -- -- 68
2019-10-31 13:00:00 24.7 6 Noroeste 19 Norte 0 -- -- 62
2019-10-31 12:00:00 22.7 6 Norte 20 Oeste 0 -- -- 68
2019-10-31 11:00:00 21.7 2 Sudoeste 5 Sudeste 0 -- -- 78
2019-10-31 10:00:00 20 2 Sur 5 Sur 0 -- -- 81
2019-10-31 09:00:00 16.8 0 Calma 4 Norte 0 -- -- 100
2019-10-31 08:00:00 15.6 0 Calma 4 Sudeste 0 -- -- 100
2019-10-31 07:00:00 15.2 0 Calma 4 Nordeste 0 -- -- 100
2019-10-31 06:00:00 15.7 0 Calma 5 Sudeste 0 -- -- 100
2019-10-31 05:00:00 15.7 2 Norte 4 Noroeste 0 -- -- 100
2019-10-31 04:00:00 15.6 0 Calma -- -- 0 -- -- 100
2019-10-31 03:00:00 15.7 0 Calma 2 Noroeste 0 -- -- 100
2019-10-31 02:00:00 15.6 0 Calma 5 Nordeste 0 -- -- 100
2019-10-31 01:00:00 15.1 2 Norte 3 Norte 0 -- -- 100
2019-10-31 00:00:00 15.6 0 Calma 4 Norte 0 -- -- 100
2019-10-30 23:00:00 16.1 0 Calma 3 Nordeste 0 -- -- 100
2019-10-30 22:00:00 16.4 2 Norte 4 Norte 0 -- -- 100
2019-10-30 21:00:00 16.8 2 Nordeste 4 Norte 0 -- -- 100
2019-10-30 20:00:00 17.4 2 Norte 4 Norte 0 -- -- 97
2019-10-30 19:00:00 18.4 2 Norte 8 Oeste 0 -- -- 94
2019-10-30 18:00:00 20.2 0 Calma 7 Sudeste 0 -- -- 86
2019-10-30 17:00:00 23.3 0 Calma 9 Norte 0 -- -- 70
2019-10-30 16:00:00 24.8 5 Norte 9 Norte 0 -- -- 66
2019-10-30 15:00:00 25 4 Norte 14 Noroeste 0 -- -- 62
2019-10-30 14:00:00 24.8 5 Noroeste 14 Norte 0 -- -- 56
2019-10-30 13:00:00 25.7 4 Sudeste 8 Este 0 -- -- 66
2019-10-30 12:00:00 26.1 5 Sudeste 9 Sudeste 0 -- -- 67
2019-10-30 11:00:00 23.6 3 Sudeste 6 Sudeste 0 -- -- 78
2019-10-30 10:00:00 20.3 2 Sur 5 Norte 0 -- -- 99
2019-10-30 09:00:00 16.7 3 Norte 7 Sudoeste 0 -- -- 100
2019-10-30 08:00:00 15 0 Calma 3 Norte 0 -- -- 100
2019-10-30 07:00:00 14.7 0 Calma 4 Nordeste 0 -- -- 100
2019-10-30 06:00:00 14.4 2 Noroeste 4 Norte 0 -- -- 100
2019-10-30 05:00:00 14.4 0 Calma 4 Norte 0 -- -- 100
2019-10-30 04:00:00 14.7 0 Calma 4 Norte 0 -- -- 100
2019-10-30 03:00:00 14.8 2 Norte 4 Norte 0 -- -- 100
2019-10-30 02:00:00 14.7 2 Norte 4 Norte 0 -- -- 100
2019-10-30 01:00:00 15 0 Calma 3 Norte 0 -- -- 100
2019-10-30 00:00:00 15.5 0 Calma 4 Este 0 -- -- 100
2019-10-29 23:00:00 15.8 0 Calma 3 Este 0 -- -- 100
2019-10-29 22:00:00 16.3 0 Calma 3 Este 0 -- -- 100
2019-10-29 21:00:00 17 3 Nordeste 4 Este 0 -- -- 99
2019-10-29 20:00:00 17.6 4 Este 6 Sudeste 0 -- -- 97
2019-10-29 19:00:00 18.7 2 Este 8 Sur 0 -- -- 92
2019-10-29 18:00:00 21.1 7 Sur 13 Sur 0 -- -- 83
2019-10-29 17:00:00 21.7 3 Norte 10 Norte 0 -- -- 82
2019-10-29 16:00:00 23.9 4 Norte 15 Norte 0 -- -- 71
2019-10-29 15:00:00 24.3 7 Norte 14 Norte 0 -- -- 69
2019-10-29 14:00:00 23.8 7 Norte 19 Nordeste 0 -- -- 70
2019-10-29 13:00:00 24.9 4 Sur 13 Sudeste 0 -- -- 68
2019-10-29 12:00:00 25.1 8 Sur 13 Sudoeste 0 -- -- 72
2019-10-29 11:00:00 22.6 2 Sudeste 5 Sudoeste 0 -- -- 76
2019-10-29 10:00:00 20.8 0 Calma 5 Este 0 -- -- 83
2019-10-29 09:00:00 16.5 0 Calma 2 Norte 0 -- -- 100
2019-10-29 08:00:00 13.8 0 Calma 4 Noroeste 0 -- -- 100
2019-10-29 07:00:00 13.5 2 Norte 4 Norte 0 -- -- 100
2019-10-29 06:00:00 13.7 0 Calma 3 Norte 0 -- -- 100
2019-10-29 05:00:00 14.2 0 Calma 3 Norte 0 -- -- 100
2019-10-29 04:00:00 14.8 0 Calma 3 Nordeste 0 -- -- 100
2019-10-29 03:00:00 15.4 0 Calma 6 Este 0 -- -- 100
2019-10-29 02:00:00 16 2 Norte 5 Norte 0 -- -- 100
2019-10-29 01:00:00 16.2 0 Calma 3 Este 0 -- -- 100
2019-10-29 00:00:00 16.1 0 Calma 4 Norte 0 -- -- 100
2019-10-28 23:00:00 16.5 0 Calma 5 Sudoeste 0 -- -- 100
2019-10-28 22:00:00 16.7 0 Calma 3 Noroeste 0 -- -- 99
2019-10-28 21:00:00 17.1 0 Calma 3 Norte 0 -- -- 97
2019-10-28 20:00:00 18 0 Calma 8 Sudoeste 0 -- -- 92
2019-10-28 19:00:00 19.1 0 Calma 5 Norte 0 -- -- 89
2019-10-28 18:00:00 20 2 Norte 7 Nordeste 0 -- -- 85
2019-10-28 17:00:00 21.2 3 Norte 12 Norte 0 -- -- 77
2019-10-28 16:00:00 22.1 5 Norte 14 Norte 0 -- -- 70
2019-10-28 15:00:00 23.4 10 Norte 19 Noroeste 0 -- -- 65
2019-10-28 14:00:00 23.9 9 Norte 19 Nordeste 0 -- -- 67
2019-10-28 13:00:00 25 8 Norte 15 Norte 0 -- -- 64
2019-10-28 12:00:00 25.3 5 Sudeste 8 Sudeste 0 -- -- 62
2019-10-28 11:00:00 23 4 Sur 6 Sur 0 -- -- 74
2019-10-28 10:00:00 21.5 2 Sudeste 4 Sudeste 0 -- -- 83
2019-10-28 09:00:00 17.8 0 Calma 4 Norte 0 -- -- 100
2019-10-28 08:00:00 14 0 Calma 3 Norte 0 -- -- 100
2019-10-28 07:00:00 13.8 0 Calma 4 Norte 0 -- -- 100
2019-10-28 06:00:00 14.1 0 Calma 4 Oeste 0 -- -- 100
2019-10-28 05:00:00 14.6 2 Norte 4 Norte 0 -- -- 100
2019-10-28 04:00:00 14.4 0 Calma 3 Norte 0 -- -- 100
2019-10-28 03:00:00 14.7 2 Noroeste 3 Norte 0 -- -- 100
2019-10-28 02:00:00 14.6 0 Calma 4 Norte 0 -- -- 100
2019-10-28 01:00:00 14.9 0 Calma 4 Norte 0 -- -- 100
2019-10-28 00:00:00 15.2 2 Norte 4 Nordeste 0 -- -- 100
2019-10-27 23:00:00 15.5 0 Calma 2 Norte 0 -- -- 100
2019-10-27 22:00:00 16.2 2 Norte 3 Norte 0 -- -- 100
2019-10-27 21:00:00 16.8 0 Calma 6 Norte 0 -- -- 98
2019-10-27 20:00:00 17.6 3 Norte 8 Norte 0 -- -- 96
2019-10-27 19:00:00 18.4 3 Norte 8 Norte 0 -- -- 90
2019-10-27 18:00:00 19.8 4 Norte 14 Norte 0 -- -- 84
2019-10-27 17:00:00 21.7 8 Norte 18 Norte 0 -- -- 77
2019-10-27 16:00:00 22.8 8 Norte 18 Norte 0 -- -- 71
2019-10-27 15:00:00 23 9 Norte 18 Norte 0 -- -- 71
2019-10-27 14:00:00 23.7 8 Norte 18 Norte 0 -- -- 68
2019-10-27 13:00:00 23.7 9 Norte 18 Norte 0 -- -- 70
2019-10-27 12:00:00 24 6 Norte 14 Norte 0 -- -- 71
2019-10-27 11:00:00 23.6 5 Sur 7 Sudoeste 0 -- -- 73
2019-10-27 10:00:00 21.8 3 Sur 5 Sudeste 0 -- -- 81
2019-10-27 09:00:00 18.3 0 Calma 3 Norte 0 -- -- 100
2019-10-27 08:00:00 14.3 0 Calma 4 Norte 0 -- -- 100
2019-10-27 07:00:00 14.2 0 Calma 3 Noroeste 0 -- -- 100
2019-10-27 06:00:00 14.4 0 Calma 3 Norte 0 -- -- 100
2019-10-27 05:00:00 14.5 0 Calma 4 Nordeste 0 -- -- 100
2019-10-27 04:00:00 15.1 2 Norte 3 Norte 0 -- -- 100
2019-10-27 03:00:00 15.8 0 Calma 5 Sudoeste 0 -- -- 100
2019-10-27 02:00:00 15.9 2 Norte 4 Norte 0 -- -- 100
2019-10-27 01:00:00 17.2 0 Calma 4 Norte 0 -- -- 97
2019-10-27 00:00:00 18.6 2 Norte 13 Nordeste 0 -- -- 94
2019-10-26 23:00:00 19 3 Nordeste 13 Este 0 -- -- 93
2019-10-26 22:00:00 18.1 4 Norte 8 Norte 0 -- -- 96
2019-10-26 21:00:00 18.4 0 Calma 8 Nordeste 0 -- -- 91
2019-10-26 20:00:00 19.5 3 Norte 12 Norte 0 -- -- 93
2019-10-26 19:00:00 20.1 4 Norte 20 Norte 0 -- -- 88
2019-10-26 18:00:00 21.1 10 Norte 25 Norte 0 -- -- 79
2019-10-26 17:00:00 22.1 9 Norte 26 Norte 0 -- -- 73
2019-10-26 16:00:00 22.8 9 Norte 24 Norte 0 -- -- 70
2019-10-26 15:00:00 23 9 Noroeste 25 Norte 0 -- -- 70
2019-10-26 14:00:00 23.2 8 Norte 22 Noroeste 0 -- -- 70
2019-10-26 13:00:00 23.4 5 Norte 19 Norte 0 -- -- 68
2019-10-26 12:00:00 22.9 10 Norte 24 Norte 0 -- -- 71
2019-10-26 11:00:00 22 11 Norte 21 Norte 0 -- -- 71
2019-10-26 10:00:00 20.5 8 Norte 19 Norte 0 -- -- 75
2019-10-26 09:00:00 18.9 9 Norte 21 Norte 0 -- -- 77
2019-10-26 08:00:00 18.7 8 Norte 26 Norte 0 -- -- 70
2019-10-26 07:00:00 18.9 10 Norte 33 Nordeste 0 -- -- 70
2019-10-26 06:00:00 18.9 9 Norte 23 Norte 0 -- -- 69
2019-10-26 05:00:00 18.8 9 Noroeste 26 Norte 0 -- -- 69
2019-10-26 04:00:00 18.3 5 Noroeste 16 Noroeste 0 -- -- 67
2019-10-26 03:00:00 18.1 5 Norte 20 Nordeste 0 -- -- 71
2019-10-26 02:00:00 18.5 8 Norte 19 Norte 0 -- -- 69
2019-10-26 01:00:00 18.5 5 Norte 18 Norte 0 -- -- 67
2019-10-26 00:00:00 18.5 6 Norte 18 Norte 0 -- -- 65
2019-10-25 23:00:00 18.4 5 Norte 22 Norte 0 -- -- 66
2019-10-25 22:00:00 18.7 7 Norte 22 Norte 0 -- -- 63
2019-10-25 21:00:00 18.7 5 Noroeste 23 Sudoeste 0 -- -- 68
2019-10-25 20:00:00 18.8 4 Noroeste 16 Norte 0 -- -- 67
2019-10-25 19:00:00 19.2 4 Noroeste 24 Norte 0 -- -- 73
2019-10-25 18:00:00 21.1 5 Noroeste 21 Norte 0 -- -- 66
2019-10-25 17:00:00 22.2 6 Norte 24 Norte 0 -- -- 64
2019-10-25 16:00:00 21.2 5 Norte 19 Norte 0 -- -- 68
2019-10-25 15:00:00 22.1 6 Noroeste 22 Norte 0 -- -- 65
2019-10-25 14:00:00 22.6 8 Norte 22 Norte 0 -- -- 66
2019-10-25 13:00:00 21.2 10 Norte 29 Norte 0 -- -- 70
2019-10-25 12:00:00 21 13 Norte 31 Nordeste 0 -- -- 69
2019-10-25 11:00:00 20.2 12 Norte 30 Norte 0 -- -- 71
2019-10-25 10:00:00 20.6 5 Noroeste 19 Oeste 0 -- -- 66
2019-10-25 09:00:00 16.2 3 Noroeste 6 Oeste 0 -- -- 84
2019-10-25 08:00:00 15.9 2 Norte 8 Noroeste 0 -- -- 83
2019-10-25 07:00:00 18.3 3 Oeste 16 Oeste 0 -- -- 71
2019-10-25 06:00:00 18.2 4 Noroeste 12 Norte 0 -- -- 72
2019-10-25 05:00:00 18.5 3 Noroeste 14 Oeste 0 -- -- 71
2019-10-25 04:00:00 18.5 5 Noroeste 23 Norte 0 -- -- 69
2019-10-25 03:00:00 18.1 6 Noroeste 17 Oeste 0 -- -- 69
2019-10-25 02:00:00 18.4 3 Noroeste 23 Norte 0 -- -- 68
2019-10-25 01:00:00 19.1 10 Norte 29 Norte 0 -- -- 66
2019-10-25 00:00:00 19.2 8 Norte 28 Norte 0 -- -- 64
2019-10-24 23:00:00 19.1 8 Nordeste 28 Norte 0 -- -- 65
2019-10-24 22:00:00 19.1 7 Oeste 31 Oeste 0 -- -- 69
2019-10-24 21:00:00 18.9 7 Sudoeste 21 Sudoeste 0 -- -- 68
2019-10-24 20:00:00 18.7 5 Sudoeste 21 Nordeste 0 -- -- 68
2019-10-24 19:00:00 19 10 Norte 30 Norte 0 -- -- 68
2019-10-24 18:00:00 20.2 5 Noroeste 16 Oeste 0 -- -- 63
2019-10-24 17:00:00 21 6 Noroeste 19 Norte 0 -- -- 57
2019-10-24 16:00:00 21.6 6 Noroeste 23 Oeste 0 -- -- 58
2019-10-24 15:00:00 21.9 9 Oeste 22 Oeste 0 -- -- 56
2019-10-24 14:00:00 21.8 6 Oeste 21 Oeste 0 -- -- 58
2019-10-24 13:00:00 21.4 6 Noroeste 13 Sudoeste 0 -- -- 56
2019-10-24 12:00:00 20.8 5 Noroeste 14 Noroeste 0 -- -- 64
2019-10-24 11:00:00 16.1 0 Calma 4 Norte 0 -- -- 89
2019-10-24 10:00:00 13.9 3 Norte 16 Sudoeste 0 -- -- 100
2019-10-24 09:00:00 13 0 Calma 3 Norte 0 -- -- 100
2019-10-24 08:00:00 12.2 3 Norte 5 Norte 0 -- -- 100
2019-10-24 07:00:00 11.8 0 Calma 4 Nordeste 0 -- -- 100
2019-10-24 06:00:00 12 2 Norte 4 Norte 0 -- -- 100
2019-10-24 05:00:00 12.6 2 Norte 5 Norte 0 -- -- 100
2019-10-24 04:00:00 12.6 3 Norte 6 Norte 0 -- -- 100
2019-10-24 03:00:00 12.5 0 Calma 4 Norte 0 -- -- 100
2019-10-24 02:00:00 12.1 0 Calma 5 Nordeste 0 -- -- 100
2019-10-24 01:00:00 11.8 2 Este 5 Norte 0 -- -- 100
2019-10-24 00:00:00 12.3 2 Este 5 Norte 0 -- -- 99
2019-10-23 23:00:00 13.3 0 Calma 12 Sur 0 -- -- 93
2019-10-23 22:00:00 16.3 13 Sur 22 Sur 0 -- -- 82
2019-10-23 21:00:00 16.3 10 Sur 19 Sur 0 -- -- 82
2019-10-23 20:00:00 16.8 8 Sur 17 Sudoeste 0 -- -- 81
2019-10-23 19:00:00 17.5 13 Sur 28 Sudoeste 0 -- -- 83
2019-10-23 18:00:00 19 21 Sur 25 Sur 0 -- -- 72
2019-10-23 17:00:00 19.2 11 Sudoeste 42 Sur 0.4 -- -- 73
2019-10-23 16:00:00 20.2 10 Sudoeste 31 Sur 0 -- -- 66
2019-10-23 15:00:00 20.2 25 Sur 37 Sur 0 -- -- 67
2019-10-23 14:00:00 21.3 15 Sur 31 Sudoeste 0 -- -- 66
2019-10-23 13:00:00 21.2 25 Sur 33 Sur 0 -- -- 63
2019-10-23 12:00:00 19.5 10 Sur 16 Sudoeste 0 -- -- 84
2019-10-23 11:00:00 16.8 2 Sudeste 17 Este 0.6 -- -- 100
2019-10-23 10:00:00 16.6 5 Sur 14 Sur 0.8 -- -- 100
2019-10-23 09:00:00 17 6 Sudoeste 14 Sur 0 -- -- 100
2019-10-23 08:00:00 16.2 2 Norte 17 Sur 0 -- -- 100
2019-10-23 07:00:00 16.2 3 Oeste 11 Sur 0.6 -- -- 100
2019-10-23 06:00:00 17.2 7 Sudeste 24 Sur 0.8 -- -- 100
2019-10-23 05:00:00 17.5 7 Sudoeste 21 Sudoeste 0.4 -- -- 99
2019-10-23 04:00:00 18 9 Sudoeste 28 Sur 1 -- -- 100
2019-10-23 03:00:00 18.4 3 Noroeste 28 Oeste 0.4 -- -- 95
2019-10-23 02:00:00 19 5 Noroeste 22 Sudoeste 0 -- -- 92
2019-10-23 01:00:00 20 4 Oeste 13 Oeste 0 -- -- 98
2019-10-23 00:00:00 20.6 5 Norte 37 Sudeste 0.2 -- -- 99
2019-10-22 23:00:00 21.2 9 Norte 21 Norte 0.6 -- -- 100
2019-10-22 22:00:00 21.4 6 Norte 42 Sudeste 5.2 -- -- 100
2019-10-22 21:00:00 22.8 12 Sur 52 Nordeste 0 -- -- 96
2019-10-22 20:00:00 22.8 19 Norte 41 Nordeste 0.2 -- -- 95
2019-10-22 19:00:00 22.6 3 Oeste 38 Nordeste 0 -- -- 95
2019-10-22 18:00:00 23.6 5 Oeste 23 Este 0 -- -- 92
2019-10-22 17:00:00 25.1 8 Este 20 Este 0 -- -- 82
2019-10-22 16:00:00 25.5 8 Sudeste 15 Sudeste 0.2 -- -- 86
2019-10-22 15:00:00 24.3 10 Sudeste 23 Este 0.2 -- -- 93
2019-10-22 14:00:00 22.9 10 Sudeste 26 Sudeste 1.4 -- -- 100
2019-10-22 13:00:00 22.6 14 Sudeste 30 Sudeste 2 -- -- 100
2019-10-22 12:00:00 23.2 8 Oeste 42 Este 1 -- -- 97
2019-10-22 11:00:00 22 11 Norte 30 Nordeste 0 -- -- 99
2019-10-22 10:00:00 19.9 8 Norte 22 Norte 0 -- -- 100
2019-10-22 09:00:00 18.6 5 Norte 27 Norte 0 -- -- 98
2019-10-22 08:00:00 18.1 8 Nordeste 50 Norte 0 -- -- 100
2019-10-22 07:00:00 17.6 26 Nordeste 53 Norte 6 -- -- 100
2019-10-22 06:00:00 17.9 8 Norte 19 Este 3.2 -- -- 100
2019-10-22 05:00:00 17.9 4 Norte 14 Nordeste 3.4 -- -- 100
2019-10-22 04:00:00 17.4 0 Calma 7 Oeste 0.6 -- -- 100
2019-10-22 03:00:00 17.6 2 Norte 24 Este 0 -- -- 100
2019-10-22 02:00:00 17 3 Norte 28 Nordeste 0 -- -- 100
2019-10-22 01:00:00 16.1 6 Noroeste 35 Nordeste 3.6 -- -- 100
2019-10-22 00:00:00 15.6 4 Norte 17 Nordeste 8.2 -- -- 100
2019-10-21 23:00:00 15.5 8 Nordeste 19 Norte 2.6 -- -- 100
2019-10-21 22:00:00 15.1 2 Oeste 16 Nordeste 1.4 -- -- 100
2019-10-21 21:00:00 15.1 3 Noroeste 10 Noroeste 0.2 -- -- 100
2019-10-21 20:00:00 15 0 Calma 13 Norte 2.8 -- -- 100
2019-10-21 19:00:00 15.6 5 Nordeste 11 Este 1.4 -- -- 100
2019-10-21 18:00:00 16.7 4 Este 7 Este 0.6 -- -- 100
2019-10-21 17:00:00 17 0 Calma 4 Oeste 0.2 -- -- 97
2019-10-21 16:00:00 17.3 3 Sudoeste 13 Sudoeste 0 -- -- 89
2019-10-21 15:00:00 17.4 6 Sudeste 12 Sudeste 0.2 -- -- 91
2019-10-21 14:00:00 17.5 4 Sudeste 13 Sur 0.8 -- -- 92
2019-10-21 13:00:00 17 0 Calma 12 Sudoeste 0.4 -- -- 91
2019-10-21 12:00:00 17.3 2 Norte 15 Sur 0 -- -- 97
2019-10-21 11:00:00 17.6 12 Sur 19 Sur 0.2 -- -- 94
2019-10-21 10:00:00 17.5 5 Sudeste 19 Sur 0 -- -- 95
2019-10-21 09:00:00 17.1 12 Sur 17 Sur 0.4 -- -- 100
2019-10-21 08:00:00 16.5 0 Calma 5 Norte 0.6 -- -- 100
2019-10-21 07:00:00 16.9 4 Sur 19 Sudoeste 1 -- -- 100
2019-10-21 06:00:00 17.6 10 Sur 20 Sudoeste 2.4 -- -- 95
2019-10-21 05:00:00 18.6 6 Sudoeste 19 Sudoeste 0 -- -- 85
2019-10-21 04:00:00 18.4 10 Sur 15 Sur 0 -- -- 92
2019-10-21 03:00:00 18.1 8 Sur 12 Sudoeste 0.2 -- -- 100
2019-10-21 02:00:00 17.8 2 Nordeste 8 Norte 0.6 -- -- 98
2019-10-21 01:00:00 18.2 3 Este 10 Sudeste 0 -- -- 89
2019-10-21 00:00:00 19 8 Sur 18 Sur 0.2 -- -- 83
2019-10-20 23:00:00 19.6 9 Sur 15 Sudoeste 0.2 -- -- 91
2019-10-20 22:00:00 19.2 7 Sudeste 18 Sudeste 0.4 -- -- 99
2019-10-20 21:00:00 19 5 Sudeste 10 Sudeste 1 -- -- 99
2019-10-20 20:00:00 19.6 2 Norte 13 Norte 0 -- -- 89
2019-10-20 19:00:00 20.6 3 Norte 13 Sudoeste 0.4 -- -- 85
2019-10-20 18:00:00 22.6 3 Noroeste 26 Sur 0 -- -- 72
2019-10-20 17:00:00 23.8 10 Sudoeste 28 Sudoeste 0 -- -- 74
2019-10-20 16:00:00 24.8 24 Sur 31 Sur 0 -- -- 73
2019-10-20 15:00:00 24.3 24 Sur 39 Sur 0 -- -- 76
2019-10-20 14:00:00 24.5 32 Sur 56 Sudoeste 0 -- -- 73
2019-10-20 13:00:00 26.2 33 Sur 45 Sudoeste 0 -- -- 68
2019-10-20 12:00:00 23.8 23 Sur 41 Sur 0 -- -- 82
2019-10-20 11:00:00 24 23 Sur 32 Sudoeste 0 -- -- 82
2019-10-20 10:00:00 22.5 10 Sur 20 Sur 0 -- -- 88
2019-10-20 09:00:00 20.7 2 Sudoeste 12 Oeste 0 -- -- 93
2019-10-20 08:00:00 19.3 2 Norte 9 Nordeste 0 -- -- 98
2019-10-20 07:00:00 19.6 3 Norte 10 Sur 0 -- -- 96
2019-10-20 06:00:00 20.6 3 Sudeste 14 Sur 0 -- -- 93
2019-10-20 05:00:00 20.7 10 Sur 19 Sur 0 -- -- 95
2019-10-20 04:00:00 20.6 8 Sur 21 Sur 0 -- -- 95
2019-10-20 03:00:00 20.6 11 Sur 23 Sudeste 0 -- -- 95
2019-10-20 02:00:00 20.7 15 Sudeste 31 Sur 0 -- -- 96
2019-10-20 01:00:00 20.5 12 Sudoeste 25 Sur 0 -- -- 94
2019-10-20 00:00:00 20.4 5 Sudoeste 13 Sudoeste 0 -- -- 93
2019-10-19 23:00:00 20.9 8 Sudoeste 22 Sudoeste 0 -- -- 89
2019-10-19 22:00:00 21.6 10 Sur 22 Sur 0 -- -- 86
2019-10-19 21:00:00 22 10 Sur 19 Sur 0 -- -- 86
2019-10-19 20:00:00 22.2 13 Sur 23 Sudoeste 0 -- -- 82
2019-10-19 19:00:00 22.8 17 Sur 32 Sur 0 -- -- 75
2019-10-19 18:00:00 24.6 13 Sudoeste 33 Sudoeste 0 -- -- 64
2019-10-19 17:00:00 25.2 21 Sudoeste 42 Sudoeste 0 -- -- 61
2019-10-19 16:00:00 25.5 29 Sudoeste 39 Sudoeste 0 -- -- 60
2019-10-19 15:00:00 25.9 25 Sudoeste 37 Sudoeste 0 -- -- 57
2019-10-19 14:00:00 26 22 Sur 33 Sudoeste 0 -- -- 58
2019-10-19 13:00:00 25.4 22 Sur 36 Sudoeste 0 -- -- 62
2019-10-19 12:00:00 24.5 27 Sur 40 Sudoeste 0 -- -- 68
2019-10-19 11:00:00 23.3 30 Sur 42 Sur 0 -- -- 76
2019-10-19 10:00:00 22 11 Sur 23 Sur 0 -- -- 87
2019-10-19 09:00:00 20.3 14 Sudoeste 23 Sur 0 -- -- 94
2019-10-19 08:00:00 20.2 13 Sur 19 Sur 0 -- -- 97
2019-10-19 07:00:00 19.8 11 Sudoeste 18 Sudoeste 0 -- -- 98
2019-10-19 06:00:00 19.9 5 Sudoeste 22 Sur 0 -- -- 95
2019-10-19 05:00:00 20.2 10 Sur 20 Sur 0 -- -- 94
2019-10-19 04:00:00 20.9 12 Sur 24 Sur 0 -- -- 92
2019-10-19 03:00:00 21.6 14 Sur 25 Sudoeste 0 -- -- 88
2019-10-19 02:00:00 21.6 15 Sur 26 Sur 0 -- -- 89
2019-10-19 01:00:00 20.2 7 Sur 14 Sudoeste 0 -- -- 92
2019-10-19 00:00:00 19.2 2 Sudoeste 10 Sudoeste 0 -- -- 91
2019-10-18 23:00:00 18.9 4 Sudoeste 9 Sur 0 -- -- 97
2019-10-18 22:00:00 19 3 Este 9 Este 0 -- -- 92
2019-10-18 21:00:00 19.9 0 Calma 8 Sur 0 -- -- 88
2019-10-18 20:00:00 21.8 2 Sur 15 Sudoeste 0 -- -- 82
2019-10-18 19:00:00 23.4 12 Sudoeste 22 Sudoeste 0 -- -- 77
2019-10-18 18:00:00 24.4 13 Sur 24 Sur 0 -- -- 71
2019-10-18 17:00:00 26.4 4 Nordeste 14 Este 0 -- -- 61
2019-10-18 16:00:00 27.4 6 Este 14 Norte 0 -- -- 57
2019-10-18 15:00:00 26.4 8 Sur 19 Sur 0 -- -- 63
2019-10-18 14:00:00 25.7 12 Sur 22 Sur 0 -- -- 69
2019-10-18 13:00:00 24.8 15 Sur 21 Sur 0 -- -- 73
2019-10-18 12:00:00 24.5 3 Sur 8 Sur 0 -- -- 70
2019-10-18 11:00:00 22.9 4 Sur 10 Sur 0 -- -- 73
2019-10-18 10:00:00 19.9 3 Sudeste 8 Sudeste 0 -- -- 85
2019-10-18 09:00:00 14.6 0 Calma 4 Nordeste 0 -- -- 100
2019-10-18 08:00:00 13.1 0 Calma 4 Norte 0 -- -- 100
2019-10-18 07:00:00 13 0 Calma 3 Noroeste 0 -- -- 99
2019-10-18 06:00:00 13.5 0 Calma 3 Norte 0 -- -- 98
2019-10-18 05:00:00 13.9 2 Norte 5 Norte 0 -- -- 96
2019-10-18 04:00:00 14.5 0 Calma 4 Norte 0 -- -- 97
2019-10-18 03:00:00 14.7 3 Norte 4 Norte 0 -- -- 94
2019-10-18 02:00:00 15.3 0 Calma 3 Norte 0 -- -- 94
2019-10-18 01:00:00 16.2 2 Nordeste 4 Sudeste 0 -- -- 93
2019-10-18 00:00:00 16.7 2 Nordeste 6 Norte 0 -- -- 92
2019-10-17 23:00:00 17.5 2 Norte 6 Sudoeste 0 -- -- 90
2019-10-17 22:00:00 20.2 5 Sudoeste 12 Sur 0 -- -- 81
2019-10-17 21:00:00 21.1 7 Sur 19 Sudoeste 0 -- -- 80
2019-10-17 20:00:00 21.9 13 Sudoeste 21 Sudoeste 0 -- -- 78
2019-10-17 19:00:00 22.8 16 Sudoeste 26 Sudoeste 0 -- -- 74
2019-10-17 18:00:00 24.4 20 Sur 29 Sudoeste 0 -- -- 67
2019-10-17 17:00:00 25.8 10 Sudoeste 28 Sur 0 -- -- 62
2019-10-17 16:00:00 25.5 20 Sur 36 Sur 0 -- -- 62
2019-10-17 15:00:00 25.6 20 Sur 36 Sur 0 -- -- 61
2019-10-17 14:00:00 25.1 20 Sur 31 Sudoeste 0 -- -- 61
2019-10-17 13:00:00 24.8 21 Sur 31 Sudoeste 0 -- -- 64
2019-10-17 12:00:00 23.6 19 Sur 26 Sur 0 -- -- 67
2019-10-17 11:00:00 22.8 12 Sur 21 Sur 0 -- -- 71
2019-10-17 10:00:00 19.2 0 Calma 4 Sudeste 0 -- -- 85
2019-10-17 09:00:00 13.9 0 Calma 5 Norte 0 -- -- 100
2019-10-17 08:00:00 12.8 3 Norte 5 Norte 0 -- -- 99
2019-10-17 07:00:00 12.8 2 Norte 4 Norte 0 -- -- 97
2019-10-17 06:00:00 12.9 2 Norte 3 Norte 0 -- -- 96
2019-10-17 05:00:00 12.9 2 Nordeste 3 Nordeste 0 -- -- 95
2019-10-17 04:00:00 13.1 0 Calma 5 Norte 0 -- -- 92
2019-10-17 03:00:00 13.3 2 Norte 4 Norte 0 -- -- 90
2019-10-17 02:00:00 13.7 0 Calma 4 Sur 0 -- -- 87
2019-10-17 01:00:00 14.5 0 Calma 5 Este 0 -- -- 80
2019-10-17 00:00:00 14.6 3 Nordeste 6 Norte 0 -- -- 83
2019-10-16 23:00:00 15.1 0 Calma 6 Sur 0 -- -- 77
2019-10-16 22:00:00 16.1 0 Calma 10 Sudoeste 0 -- -- 73
2019-10-16 21:00:00 17.8 3 Sudoeste 10 Sur 0 -- -- 67
2019-10-16 20:00:00 20.6 4 Sudoeste 22 Sudoeste 0 -- -- 62
2019-10-16 19:00:00 22.2 13 Sudoeste 29 Sudoeste 0 -- -- 61
2019-10-16 18:00:00 23.7 18 Sur 32 Sudoeste 0 -- -- 59
2019-10-16 17:00:00 24.2 22 Sur 35 Sudoeste 0 -- -- 57
2019-10-16 16:00:00 24.6 24 Sur 39 Sur 0 -- -- 55
2019-10-16 15:00:00 24.8 19 Sur 30 Sur 0 -- -- 52
2019-10-16 14:00:00 24.5 21 Sur 31 Sudoeste 0 -- -- 46
2019-10-16 13:00:00 23.8 22 Sur 32 Sur 0 -- -- 50
2019-10-16 12:00:00 23.3 18 Sur 23 Sur 0 -- -- 49
2019-10-16 11:00:00 21.8 12 Sur 17 Sur 0 -- -- 57
2019-10-16 10:00:00 17.8 0 Calma 4 Sur 0 -- -- 74
2019-10-16 09:00:00 12.5 0 Calma -- -- 0 -- -- 89
2019-10-16 08:00:00 11.4 0 Calma -- -- 0 -- -- 89
2019-10-16 07:00:00 11.8 0 Calma 4 Nordeste 0 -- -- 88
2019-10-16 06:00:00 12 2 Nordeste 5 Este 0 -- -- 87
2019-10-16 05:00:00 12.2 0 Calma 5 Sudoeste 0 -- -- 87
2019-10-16 04:00:00 12.5 0 Calma 6 Norte 0 -- -- 87
2019-10-16 03:00:00 12.8 0 Calma 6 Este 0 -- -- 86
2019-10-16 02:00:00 13.5 3 Norte 8 Sudeste 0 -- -- 82
2019-10-16 01:00:00 13.9 0 Calma 7 Norte 0 -- -- 78
2019-10-16 00:00:00 15.8 4 Norte 12 Sudeste 0 -- -- 70
2019-10-15 23:00:00 15.8 3 Sudeste 9 Norte 0 -- -- 73
2019-10-15 22:00:00 15.8 3 Norte 8 Oeste 0 -- -- 66
2019-10-15 21:00:00 17.8 2 Noroeste 16 Oeste 0 -- -- 60
2019-10-15 20:00:00 18.5 3 Noroeste 18 Sudoeste 0 -- -- 55
2019-10-15 19:00:00 19.3 5 Noroeste 25 Oeste 0 -- -- 54
2019-10-15 18:00:00 20.8 6 Noroeste 27 Oeste 0 -- -- 49
2019-10-15 17:00:00 21.8 8 Noroeste 21 Norte 0 -- -- 49
2019-10-15 16:00:00 22.7 6 Noroeste 33 Oeste 0 -- -- 48
2019-10-15 15:00:00 22.6 8 Noroeste 26 Oeste 0 -- -- 47
2019-10-15 14:00:00 22.6 7 Noroeste 24 Sudoeste 0 -- -- 50
2019-10-15 13:00:00 22 9 Noroeste 28 Sudoeste 0 -- -- 50
2019-10-15 12:00:00 21.5 12 Oeste 39 Noroeste 0 -- -- 50
2019-10-15 11:00:00 20.5 14 Sudoeste 42 Sudoeste 0 -- -- 56
2019-10-15 10:00:00 20.6 13 Sudoeste 52 Oeste 0 -- -- 58
2019-10-15 09:00:00 19.3 13 Oeste 45 Sudoeste 0 -- -- 58
2019-10-15 08:00:00 19.6 12 Oeste 41 Oeste 0 -- -- 63
2019-10-15 07:00:00 20.2 10 Noroeste 32 Noroeste 0 -- -- 62
2019-10-15 06:00:00 20.2 6 Noroeste 29 Norte 0 -- -- 80
2019-10-15 05:00:00 19.8 3 Sur 13 Sudoeste 0 -- -- 96
2019-10-15 04:00:00 20.7 4 Este 14 Sudoeste 0 -- -- 97
2019-10-15 03:00:00 21.7 4 Sur 16 Sudoeste 0 -- -- 92
2019-10-15 02:00:00 21.7 8 Sudeste 14 Sudeste 0 -- -- 93
2019-10-15 01:00:00 21.7 8 Sur 15 Sudoeste 0 -- -- 94
2019-10-15 00:00:00 21.8 8 Sudoeste 13 Sudoeste 0 -- -- 92
2019-10-14 23:00:00 21.1 4 Sur 9 Sudoeste 0 -- -- 93
2019-10-14 22:00:00 21.8 3 Sudeste 14 Nordeste 0 -- -- 89
2019-10-14 21:00:00 22.3 6 Sudoeste 29 Norte 0.2 -- -- 83
2019-10-14 20:00:00 22.2 11 Norte 38 Nordeste 0 -- -- 83
2019-10-14 19:00:00 23.4 10 Noroeste 27 Noroeste 0.2 -- -- 85
2019-10-14 18:00:00 24.7 9 Noroeste 28 Noroeste 0 -- -- 80
2019-10-14 17:00:00 28.1 5 Norte 24 Sudeste 0 -- -- 58
2019-10-14 16:00:00 28.7 22 Sudeste 33 Sudeste 0 -- -- 65
2019-10-14 15:00:00 28.7 13 Este 29 Este 0 -- -- 65
2019-10-14 14:00:00 28.5 10 Este 23 Este 0 -- -- 66
2019-10-14 13:00:00 29.7 10 Sudeste 18 Sudeste 0 -- -- 54
2019-10-14 12:00:00 28.1 12 Sudeste 19 Sudeste 0 -- -- 68
2019-10-14 11:00:00 25.3 11 Sudeste 17 Sudeste 0 -- -- 82
2019-10-14 10:00:00 21.6 0 Calma 13 Sudoeste 0 -- -- 97
2019-10-14 09:00:00 18 2 Sudoeste 5 Sudoeste 0 -- -- 100
2019-10-14 08:00:00 16.8 0 Calma 3 Norte 0 -- -- 100
2019-10-14 07:00:00 17.4 2 Norte 3 Norte 0 -- -- 100
2019-10-14 06:00:00 18 0 Calma 4 Norte 0 -- -- 100
2019-10-14 05:00:00 18.4 2 Norte 5 Norte 0 -- -- 100
2019-10-14 04:00:00 18.5 3 Norte 4 Norte 0 -- -- 100
2019-10-14 03:00:00 18.5 2 Norte 4 Nordeste 0 -- -- 100
2019-10-14 02:00:00 18.6 0 Calma 2 Sur 0 -- -- 100
2019-10-14 01:00:00 19.1 0 Calma 2 Nordeste 0 -- -- 100
2019-10-14 00:00:00 19.8 3 Nordeste 4 Nordeste 0 -- -- 99